Terminal Aerodrome Forecast
Issued by NWS Charleston, WV

Current Version | Previous Version | Graphics & Text | Print | Product List | Glossary On
Versions: 1 2 3 4 5 6 7 8 9 10 11 12 13 14 15 16 17 18 19 20 21 22 23 24 25
000
FTUS41 KRLX 271543 AAA
TAFEKN
TAF AMD
KEKN 271543Z 2716/2812 VRB03KT P6SM BKN025
      TEMPO 2717/2719 4SM -SHRA
     FM271900 VRB03KT P6SM BKN035
     FM280100 VRB04KT 6SM BR BKN035
     FM280900 VRB03KT 4SM -SHRA BR OVC030=

USA.gov is the U.S. government's official web portal to all federal, state and local government web resources and services.